sensor_id;sensor_type;location;lat;lon;timestamp;P1;durP1;ratioP1;P2;durP2;ratioP2
76725;SDS011;65651;53.154;17.916;2024-02-16T00:02:05;39.60;;;21.80;;
76725;SDS011;65651;53.154;17.916;2024-02-16T00:04:32;40.70;;;23.40;;
76725;SDS011;65651;53.154;17.916;2024-02-16T00:07:00;43.60;;;24.00;;
76725;SDS011;65651;53.154;17.916;2024-02-16T00:09:27;49.40;;;27.40;;
76725;SDS011;65651;53.154;17.916;2024-02-16T00:11:54;41.80;;;23.70;;
76725;SDS011;65651;53.154;17.916;2024-02-16T00:14:21;48.50;;;28.10;;
76725;SDS011;65651;53.154;17.916;2024-02-16T00:16:48;42.50;;;24.00;;
76725;SDS011;65651;53.154;17.916;2024-02-16T00:19:15;45.30;;;25.30;;
76725;SDS011;65651;53.154;17.916;2024-02-16T00:21:42;40.60;;;23.00;;
76725;SDS011;65651;53.154;17.916;2024-02-16T00:24:09;39.80;;;22.50;;
76725;SDS011;65651;53.154;17.916;2024-02-16T00:26:37;43.00;;;23.90;;
76725;SDS011;65651;53.154;17.916;2024-02-16T00:29:06;40.50;;;22.50;;
76725;SDS011;65651;53.154;17.916;2024-02-16T00:31:33;38.70;;;22.90;;
76725;SDS011;65651;53.154;17.916;2024-02-16T00:33:59;41.40;;;22.90;;
76725;SDS011;65651;53.154;17.916;2024-02-16T00:36:26;39.40;;;22.50;;
76725;SDS011;65651;53.154;17.916;2024-02-16T00:38:54;38.80;;;23.50;;
76725;SDS011;65651;53.154;17.916;2024-02-16T00:41:22;42.30;;;23.80;;
76725;SDS011;65651;53.154;17.916;2024-02-16T00:43:50;35.90;;;22.00;;
76725;SDS011;65651;53.154;17.916;2024-02-16T00:46:18;45.10;;;24.90;;
76725;SDS011;65651;53.154;17.916;2024-02-16T00:48:46;39.00;;;24.10;;
76725;SDS011;65651;53.154;17.916;2024-02-16T00:51:13;43.20;;;24.10;;
76725;SDS011;65651;53.154;17.916;2024-02-16T00:53:40;36.20;;;21.10;;
76725;SDS011;65651;53.154;17.916;2024-02-16T00:56:07;40.50;;;22.90;;
76725;SDS011;65651;53.154;17.916;2024-02-16T00:58:35;40.00;;;23.80;;
76725;SDS011;65651;53.154;17.916;2024-02-16T01:01:03;41.40;;;23.20;;
76725;SDS011;65651;53.154;17.916;2024-02-16T01:03:31;41.00;;;23.30;;
76725;SDS011;65651;53.154;17.916;2024-02-16T01:05:58;40.70;;;23.90;;
76725;SDS011;65651;53.154;17.916;2024-02-16T01:08:24;40.70;;;22.60;;
76725;SDS011;65651;53.154;17.916;2024-02-16T01:10:54;41.20;;;22.80;;
76725;SDS011;65651;53.154;17.916;2024-02-16T01:13:21;45.80;;;25.50;;
76725;SDS011;65651;53.154;17.916;2024-02-16T01:15:48;45.50;;;25.20;;
76725;SDS011;65651;53.154;17.916;2024-02-16T01:18:15;49.30;;;26.10;;
76725;SDS011;65651;53.154;17.916;2024-02-16T01:20:42;36.00;;;20.80;;
76725;SDS011;65651;53.154;17.916;2024-02-16T01:23:11;41.40;;;19.90;;
76725;SDS011;65651;53.154;17.916;2024-02-16T01:25:38;47.80;;;25.70;;
76725;SDS011;65651;53.154;17.916;2024-02-16T01:28:05;45.60;;;24.60;;
76725;SDS011;65651;53.154;17.916;2024-02-16T01:30:32;46.40;;;27.40;;
76725;SDS011;65651;53.154;17.916;2024-02-16T01:32:59;43.40;;;26.30;;
76725;SDS011;65651;53.154;17.916;2024-02-16T01:35:26;53.80;;;29.50;;
76725;SDS011;65651;53.154;17.916;2024-02-16T01:37:53;54.30;;;29.30;;
76725;SDS011;65651;53.154;17.916;2024-02-16T01:40:20;46.50;;;25.80;;
76725;SDS011;65651;53.154;17.916;2024-02-16T01:42:47;54.10;;;30.70;;
76725;SDS011;65651;53.154;17.916;2024-02-16T01:45:14;55.50;;;30.50;;
76725;SDS011;65651;53.154;17.916;2024-02-16T01:47:43;59.00;;;30.60;;
76725;SDS011;65651;53.154;17.916;2024-02-16T01:50:14;55.10;;;29.20;;
76725;SDS011;65651;53.154;17.916;2024-02-16T01:52:43;55.80;;;31.00;;
76725;SDS011;65651;53.154;17.916;2024-02-16T01:55:11;53.90;;;30.50;;
76725;SDS011;65651;53.154;17.916;2024-02-16T01:57:39;60.90;;;31.90;;
76725;SDS011;65651;53.154;17.916;2024-02-16T02:00:07;57.70;;;31.30;;
76725;SDS011;65651;53.154;17.916;2024-02-16T02:02:35;54.80;;;30.90;;
76725;SDS011;65651;53.154;17.916;2024-02-16T02:05:03;54.20;;;29.50;;
76725;SDS011;65651;53.154;17.916;2024-02-16T02:07:30;54.90;;;30.70;;
76725;SDS011;65651;53.154;17.916;2024-02-16T02:09:57;54.20;;;29.70;;
76725;SDS011;65651;53.154;17.916;2024-02-16T02:12:24;54.40;;;30.10;;
76725;SDS011;65651;53.154;17.916;2024-02-16T02:14:51;52.40;;;29.90;;
76725;SDS011;65651;53.154;17.916;2024-02-16T02:17:19;47.80;;;28.30;;
76725;SDS011;65651;53.154;17.916;2024-02-16T02:19:49;48.10;;;28.30;;
76725;SDS011;65651;53.154;17.916;2024-02-16T02:22:16;47.00;;;26.20;;
76725;SDS011;65651;53.154;17.916;2024-02-16T02:24:44;44.20;;;26.30;;
76725;SDS011;65651;53.154;17.916;2024-02-16T02:27:12;38.20;;;23.50;;
76725;SDS011;65651;53.154;17.916;2024-02-16T02:29:40;46.40;;;26.50;;
76725;SDS011;65651;53.154;17.916;2024-02-16T02:32:08;46.90;;;24.60;;
76725;SDS011;65651;53.154;17.916;2024-02-16T02:34:36;48.80;;;26.50;;
76725;SDS011;65651;53.154;17.916;2024-02-16T02:37:03;47.30;;;27.30;;
76725;SDS011;65651;53.154;17.916;2024-02-16T02:39:33;44.40;;;25.10;;
76725;SDS011;65651;53.154;17.916;2024-02-16T02:42:00;46.50;;;28.20;;
76725;SDS011;65651;53.154;17.916;2024-02-16T02:44:27;45.20;;;27.50;;
76725;SDS011;65651;53.154;17.916;2024-02-16T02:46:54;43.60;;;26.70;;
76725;SDS011;65651;53.154;17.916;2024-02-16T02:49:21;47.40;;;27.80;;
76725;SDS011;65651;53.154;17.916;2024-02-16T02:51:48;48.70;;;28.60;;
76725;SDS011;65651;53.154;17.916;2024-02-16T02:54:15;44.10;;;26.70;;
76725;SDS011;65651;53.154;17.916;2024-02-16T02:56:42;47.00;;;26.60;;
76725;SDS011;65651;53.154;17.916;2024-02-16T02:59:09;43.50;;;27.00;;
76725;SDS011;65651;53.154;17.916;2024-02-16T03:01:37;41.50;;;25.60;;
76725;SDS011;65651;53.154;17.916;2024-02-16T03:04:04;44.10;;;26.70;;
76725;SDS011;65651;53.154;17.916;2024-02-16T03:06:31;45.00;;;26.20;;
76725;SDS011;65651;53.154;17.916;2024-02-16T03:08:58;40.10;;;24.90;;
76725;SDS011;65651;53.154;17.916;2024-02-16T03:11:25;39.80;;;24.10;;
76725;SDS011;65651;53.154;17.916;2024-02-16T03:13:52;49.10;;;26.00;;
76725;SDS011;65651;53.154;17.916;2024-02-16T03:16:19;45.40;;;26.50;;
76725;SDS011;65651;53.154;17.916;2024-02-16T03:18:46;44.00;;;26.30;;
76725;SDS011;65651;53.154;17.916;2024-02-16T03:21:14;43.70;;;26.40;;
76725;SDS011;65651;53.154;17.916;2024-02-16T03:23:44;44.20;;;26.00;;
76725;SDS011;65651;53.154;17.916;2024-02-16T03:26:18;46.20;;;26.60;;
76725;SDS011;65651;53.154;17.916;2024-02-16T03:28:46;40.70;;;24.20;;
76725;SDS011;65651;53.154;17.916;2024-02-16T03:31:21;43.20;;;25.90;;
76725;SDS011;65651;53.154;17.916;2024-02-16T03:33:49;43.70;;;25.70;;
76725;SDS011;65651;53.154;17.916;2024-02-16T03:36:18;47.20;;;26.70;;
76725;SDS011;65651;53.154;17.916;2024-02-16T03:38:47;39.80;;;25.10;;
76725;SDS011;65651;53.154;17.916;2024-02-16T03:41:19;40.90;;;24.50;;
76725;SDS011;65651;53.154;17.916;2024-02-16T03:43:47;40.40;;;24.20;;
76725;SDS011;65651;53.154;17.916;2024-02-16T03:46:14;39.10;;;23.90;;
76725;SDS011;65651;53.154;17.916;2024-02-16T03:48:42;44.60;;;26.10;;
76725;SDS011;65651;53.154;17.916;2024-02-16T03:51:09;48.30;;;26.80;;
76725;SDS011;65651;53.154;17.916;2024-02-16T03:53:36;46.10;;;26.50;;
76725;SDS011;65651;53.154;17.916;2024-02-16T03:56:03;48.20;;;27.00;;
76725;SDS011;65651;53.154;17.916;2024-02-16T03:58:32;44.30;;;24.30;;
76725;SDS011;65651;53.154;17.916;2024-02-16T04:00:59;43.60;;;25.00;;
76725;SDS011;65651;53.154;17.916;2024-02-16T04:03:26;41.60;;;23.90;;
76725;SDS011;65651;53.154;17.916;2024-02-16T04:05:53;50.40;;;26.70;;
76725;SDS011;65651;53.154;17.916;2024-02-16T04:08:20;44.40;;;25.60;;
76725;SDS011;65651;53.154;17.916;2024-02-16T04:10:47;45.30;;;25.40;;
76725;SDS011;65651;53.154;17.916;2024-02-16T04:13:14;40.70;;;25.30;;
76725;SDS011;65651;53.154;17.916;2024-02-16T04:15:41;43.80;;;23.10;;
76725;SDS011;65651;53.154;17.916;2024-02-16T04:18:08;47.80;;;26.90;;
76725;SDS011;65651;53.154;17.916;2024-02-16T04:20:36;47.30;;;26.50;;
76725;SDS011;65651;53.154;17.916;2024-02-16T04:23:04;44.30;;;24.50;;
76725;SDS011;65651;53.154;17.916;2024-02-16T04:25:31;48.90;;;27.00;;
76725;SDS011;65651;53.154;17.916;2024-02-16T04:27:58;49.90;;;26.30;;
76725;SDS011;65651;53.154;17.916;2024-02-16T04:30:26;49.30;;;26.70;;
76725;SDS011;65651;53.154;17.916;2024-02-16T04:32:53;46.30;;;25.60;;
76725;SDS011;65651;53.154;17.916;2024-02-16T04:35:20;47.80;;;26.60;;
76725;SDS011;65651;53.154;17.916;2024-02-16T04:37:47;47.70;;;27.50;;
76725;SDS011;65651;53.154;17.916;2024-02-16T04:40:14;50.40;;;27.70;;
76725;SDS011;65651;53.154;17.916;2024-02-16T04:42:42;44.10;;;24.60;;
76725;SDS011;65651;53.154;17.916;2024-02-16T04:45:12;43.60;;;25.70;;
76725;SDS011;65651;53.154;17.916;2024-02-16T04:47:40;42.30;;;25.50;;
76725;SDS011;65651;53.154;17.916;2024-02-16T04:50:07;38.80;;;23.00;;
76725;SDS011;65651;53.154;17.916;2024-02-16T04:52:37;46.30;;;26.30;;
76725;SDS011;65651;53.154;17.916;2024-02-16T04:55:08;49.10;;;26.70;;
76725;SDS011;65651;53.154;17.916;2024-02-16T04:57:35;40.50;;;23.30;;
76725;SDS011;65651;53.154;17.916;2024-02-16T05:00:02;40.90;;;24.70;;
76725;SDS011;65651;53.154;17.916;2024-02-16T05:02:30;38.50;;;23.70;;
76725;SDS011;65651;53.154;17.916;2024-02-16T05:04:57;38.90;;;23.30;;
76725;SDS011;65651;53.154;17.916;2024-02-16T05:07:24;45.20;;;26.60;;
76725;SDS011;65651;53.154;17.916;2024-02-16T05:09:52;40.20;;;24.10;;
76725;SDS011;65651;53.154;17.916;2024-02-16T05:12:24;43.00;;;25.50;;
76725;SDS011;65651;53.154;17.916;2024-02-16T05:14:53;45.50;;;25.90;;
76725;SDS011;65651;53.154;17.916;2024-02-16T05:17:20;41.70;;;24.90;;
76725;SDS011;65651;53.154;17.916;2024-02-16T05:19:48;49.90;;;26.50;;
76725;SDS011;65651;53.154;17.916;2024-02-16T05:22:16;44.60;;;25.50;;
76725;SDS011;65651;53.154;17.916;2024-02-16T05:24:45;42.40;;;26.30;;
76725;SDS011;65651;53.154;17.916;2024-02-16T05:27:12;42.50;;;24.80;;
76725;SDS011;65651;53.154;17.916;2024-02-16T05:29:40;44.50;;;26.40;;
76725;SDS011;65651;53.154;17.916;2024-02-16T05:32:10;44.80;;;25.30;;
76725;SDS011;65651;53.154;17.916;2024-02-16T05:34:39;47.20;;;26.00;;
76725;SDS011;65651;53.154;17.916;2024-02-16T05:37:06;39.70;;;24.20;;
76725;SDS011;65651;53.154;17.916;2024-02-16T05:39:36;40.90;;;23.00;;
76725;SDS011;65651;53.154;17.916;2024-02-16T05:42:20;38.50;;;24.00;;
76725;SDS011;65651;53.154;17.916;2024-02-16T05:44:53;40.90;;;24.60;;
76725;SDS011;65651;53.154;17.916;2024-02-16T05:47:20;40.30;;;23.50;;
76725;SDS011;65651;53.154;17.916;2024-02-16T05:49:47;37.90;;;23.20;;
76725;SDS011;65651;53.154;17.916;2024-02-16T05:52:15;42.00;;;24.20;;
76725;SDS011;65651;53.154;17.916;2024-02-16T05:54:45;40.30;;;24.70;;
76725;SDS011;65651;53.154;17.916;2024-02-16T05:57:13;38.50;;;23.30;;
76725;SDS011;65651;53.154;17.916;2024-02-16T05:59:41;37.20;;;22.30;;
76725;SDS011;65651;53.154;17.916;2024-02-16T06:02:08;41.90;;;25.70;;
76725;SDS011;65651;53.154;17.916;2024-02-16T06:04:38;40.00;;;23.70;;
76725;SDS011;65651;53.154;17.916;2024-02-16T06:07:06;41.70;;;25.00;;
76725;SDS011;65651;53.154;17.916;2024-02-16T06:09:33;40.70;;;24.00;;
76725;SDS011;65651;53.154;17.916;2024-02-16T06:12:04;37.60;;;22.60;;
76725;SDS011;65651;53.154;17.916;2024-02-16T06:14:31;40.00;;;23.10;;
76725;SDS011;65651;53.154;17.916;2024-02-16T06:16:59;41.40;;;23.00;;
76725;SDS011;65651;53.154;17.916;2024-02-16T06:19:26;43.00;;;24.40;;
76725;SDS011;65651;53.154;17.916;2024-02-16T06:21:54;37.10;;;23.10;;
76725;SDS011;65651;53.154;17.916;2024-02-16T06:24:24;37.80;;;22.60;;
76725;SDS011;65651;53.154;17.916;2024-02-16T06:26:51;44.20;;;24.20;;
76725;SDS011;65651;53.154;17.916;2024-02-16T06:29:19;37.50;;;23.00;;
76725;SDS011;65651;53.154;17.916;2024-02-16T06:31:47;39.70;;;22.70;;
76725;SDS011;65651;53.154;17.916;2024-02-16T06:34:14;39.90;;;23.80;;
76725;SDS011;65651;53.154;17.916;2024-02-16T06:36:43;39.50;;;23.10;;
76725;SDS011;65651;53.154;17.916;2024-02-16T06:39:10;42.10;;;24.70;;
76725;SDS011;65651;53.154;17.916;2024-02-16T06:41:38;40.30;;;22.30;;
76725;SDS011;65651;53.154;17.916;2024-02-16T06:44:05;40.40;;;22.80;;
76725;SDS011;65651;53.154;17.916;2024-02-16T06:46:33;42.10;;;24.90;;
76725;SDS011;65651;53.154;17.916;2024-02-16T06:48:59;40.10;;;24.40;;
76725;SDS011;65651;53.154;17.916;2024-02-16T06:51:27;45.10;;;23.60;;
76725;SDS011;65651;53.154;17.916;2024-02-16T06:53:55;43.90;;;25.80;;
76725;SDS011;65651;53.154;17.916;2024-02-16T06:56:22;40.30;;;24.30;;
76725;SDS011;65651;53.154;17.916;2024-02-16T06:58:50;44.00;;;24.60;;
76725;SDS011;65651;53.154;17.916;2024-02-16T07:01:17;39.40;;;25.00;;
76725;SDS011;65651;53.154;17.916;2024-02-16T07:03:47;41.30;;;24.20;;
76725;SDS011;65651;53.154;17.916;2024-02-16T07:06:15;38.50;;;23.20;;
76725;SDS011;65651;53.154;17.916;2024-02-16T07:08:42;40.00;;;23.50;;
76725;SDS011;65651;53.154;17.916;2024-02-16T07:11:10;40.10;;;23.00;;
76725;SDS011;65651;53.154;17.916;2024-02-16T07:13:39;37.50;;;23.00;;
76725;SDS011;65651;53.154;17.916;2024-02-16T07:16:07;38.40;;;23.50;;
76725;SDS011;65651;53.154;17.916;2024-02-16T07:18:33;35.50;;;22.20;;
76725;SDS011;65651;53.154;17.916;2024-02-16T07:21:01;41.00;;;25.10;;
76725;SDS011;65651;53.154;17.916;2024-02-16T07:23:29;44.50;;;26.00;;
76725;SDS011;65651;53.154;17.916;2024-02-16T07:25:56;40.00;;;23.60;;
76725;SDS011;65651;53.154;17.916;2024-02-16T07:28:24;44.00;;;24.00;;
76725;SDS011;65651;53.154;17.916;2024-02-16T07:30:52;37.40;;;24.50;;
76725;SDS011;65651;53.154;17.916;2024-02-16T07:33:19;41.40;;;22.30;;
76725;SDS011;65651;53.154;17.916;2024-02-16T07:35:47;41.20;;;23.40;;
76725;SDS011;65651;53.154;17.916;2024-02-16T07:38:14;35.50;;;22.20;;
76725;SDS011;65651;53.154;17.916;2024-02-16T07:40:41;35.70;;;22.30;;
76725;SDS011;65651;53.154;17.916;2024-02-16T07:43:08;36.60;;;21.80;;
76725;SDS011;65651;53.154;17.916;2024-02-16T07:45:35;36.20;;;22.40;;
76725;SDS011;65651;53.154;17.916;2024-02-16T07:48:02;41.80;;;22.50;;
76725;SDS011;65651;53.154;17.916;2024-02-16T07:50:31;38.60;;;21.50;;
76725;SDS011;65651;53.154;17.916;2024-02-16T07:52:59;35.20;;;21.50;;
76725;SDS011;65651;53.154;17.916;2024-02-16T07:55:25;32.00;;;19.70;;
76725;SDS011;65651;53.154;17.916;2024-02-16T07:57:52;35.70;;;20.10;;
76725;SDS011;65651;53.154;17.916;2024-02-16T08:00:20;27.80;;;17.80;;
76725;SDS011;65651;53.154;17.916;2024-02-16T08:02:47;29.40;;;18.60;;
76725;SDS011;65651;53.154;17.916;2024-02-16T08:05:14;30.00;;;19.50;;
76725;SDS011;65651;53.154;17.916;2024-02-16T08:07:41;31.80;;;19.90;;
76725;SDS011;65651;53.154;17.916;2024-02-16T08:10:09;32.00;;;19.20;;
76725;SDS011;65651;53.154;17.916;2024-02-16T08:12:36;28.70;;;19.10;;
76725;SDS011;65651;53.154;17.916;2024-02-16T08:15:05;32.70;;;20.30;;
76725;SDS011;65651;53.154;17.916;2024-02-16T08:17:34;31.30;;;19.70;;
76725;SDS011;65651;53.154;17.916;2024-02-16T08:20:01;40.20;;;21.10;;
76725;SDS011;65651;53.154;17.916;2024-02-16T08:22:31;40.40;;;21.30;;
76725;SDS011;65651;53.154;17.916;2024-02-16T08:25:00;37.60;;;20.40;;
76725;SDS011;65651;53.154;17.916;2024-02-16T08:27:27;40.70;;;21.50;;
76725;SDS011;65651;53.154;17.916;2024-02-16T08:29:54;30.00;;;18.20;;
76725;SDS011;65651;53.154;17.916;2024-02-16T08:32:21;33.60;;;19.20;;
76725;SDS011;65651;53.154;17.916;2024-02-16T08:34:49;37.50;;;19.30;;
76725;SDS011;65651;53.154;17.916;2024-02-16T08:37:16;37.00;;;18.70;;
76725;SDS011;65651;53.154;17.916;2024-02-16T08:39:43;34.60;;;19.30;;
76725;SDS011;65651;53.154;17.916;2024-02-16T08:42:10;27.50;;;17.70;;
76725;SDS011;65651;53.154;17.916;2024-02-16T08:44:40;24.90;;;16.40;;
76725;SDS011;65651;53.154;17.916;2024-02-16T08:47:08;27.20;;;17.40;;
76725;SDS011;65651;53.154;17.916;2024-02-16T08:49:35;28.80;;;17.60;;
76725;SDS011;65651;53.154;17.916;2024-02-16T08:52:06;27.80;;;17.00;;
76725;SDS011;65651;53.154;17.916;2024-02-16T08:54:33;24.60;;;16.10;;
76725;SDS011;65651;53.154;17.916;2024-02-16T08:57:00;23.70;;;15.70;;
76725;SDS011;65651;53.154;17.916;2024-02-16T08:59:27;26.10;;;16.30;;
76725;SDS011;65651;53.154;17.916;2024-02-16T09:01:56;23.00;;;15.40;;
76725;SDS011;65651;53.154;17.916;2024-02-16T09:04:23;27.60;;;17.40;;
76725;SDS011;65651;53.154;17.916;2024-02-16T09:06:51;27.60;;;15.80;;
76725;SDS011;65651;53.154;17.916;2024-02-16T09:09:18;25.20;;;14.70;;
76725;SDS011;65651;53.154;17.916;2024-02-16T09:11:45;26.20;;;15.40;;
76725;SDS011;65651;53.154;17.916;2024-02-16T09:14:14;22.00;;;13.70;;
76725;SDS011;65651;53.154;17.916;2024-02-16T09:16:42;26.50;;;15.50;;
76725;SDS011;65651;53.154;17.916;2024-02-16T09:19:09;26.80;;;16.40;;
76725;SDS011;65651;53.154;17.916;2024-02-16T09:21:36;24.00;;;14.90;;
76725;SDS011;65651;53.154;17.916;2024-02-16T09:24:03;26.00;;;16.00;;
76725;SDS011;65651;53.154;17.916;2024-02-16T09:26:36;26.20;;;15.50;;
76725;SDS011;65651;53.154;17.916;2024-02-16T09:29:03;22.00;;;15.30;;
76725;SDS011;65651;53.154;17.916;2024-02-16T09:31:30;27.50;;;16.60;;
76725;SDS011;65651;53.154;17.916;2024-02-16T09:33:58;23.90;;;15.50;;
76725;SDS011;65651;53.154;17.916;2024-02-16T09:36:25;25.00;;;15.50;;
76725;SDS011;65651;53.154;17.916;2024-02-16T09:38:52;23.70;;;15.40;;
76725;SDS011;65651;53.154;17.916;2024-02-16T09:41:20;25.20;;;14.20;;
76725;SDS011;65651;53.154;17.916;2024-02-16T09:43:47;33.10;;;17.10;;
76725;SDS011;65651;53.154;17.916;2024-02-16T09:46:14;33.30;;;17.00;;
76725;SDS011;65651;53.154;17.916;2024-02-16T09:48:42;27.30;;;15.20;;
76725;SDS011;65651;53.154;17.916;2024-02-16T09:51:12;25.00;;;15.00;;
76725;SDS011;65651;53.154;17.916;2024-02-16T09:53:39;21.00;;;14.30;;
76725;SDS011;65651;53.154;17.916;2024-02-16T09:56:08;25.90;;;15.90;;
76725;SDS011;65651;53.154;17.916;2024-02-16T09:58:38;29.60;;;16.30;;
76725;SDS011;65651;53.154;17.916;2024-02-16T10:01:05;23.00;;;14.90;;
76725;SDS011;65651;53.154;17.916;2024-02-16T10:03:32;28.50;;;16.10;;
76725;SDS011;65651;53.154;17.916;2024-02-16T10:06:05;30.80;;;15.50;;
76725;SDS011;65651;53.154;17.916;2024-02-16T10:08:48;23.30;;;13.80;;
76725;SDS011;65651;53.154;17.916;2024-02-16T10:11:17;23.00;;;14.40;;
76725;SDS011;65651;53.154;17.916;2024-02-16T10:16:29;27.40;;;15.50;;
76725;SDS011;65651;53.154;17.916;2024-02-16T10:19:04;24.00;;;14.70;;
76725;SDS011;65651;53.154;17.916;2024-02-16T10:21:38;26.70;;;14.40;;
76725;SDS011;65651;53.154;17.916;2024-02-16T10:24:06;24.60;;;14.00;;
76725;SDS011;65651;53.154;17.916;2024-02-16T10:26:35;20.60;;;12.30;;
76725;SDS011;65651;53.154;17.916;2024-02-16T10:29:10;19.80;;;12.10;;
76725;SDS011;65651;53.154;17.916;2024-02-16T10:31:41;20.70;;;13.50;;
76725;SDS011;65651;53.154;17.916;2024-02-16T10:34:09;22.60;;;13.10;;
76725;SDS011;65651;53.154;17.916;2024-02-16T10:36:37;24.10;;;12.70;;
76725;SDS011;65651;53.154;17.916;2024-02-16T10:39:05;22.90;;;13.30;;
76725;SDS011;65651;53.154;17.916;2024-02-16T10:41:35;34.40;;;20.20;;
76725;SDS011;65651;53.154;17.916;2024-02-16T10:44:03;24.60;;;13.40;;
76725;SDS011;65651;53.154;17.916;2024-02-16T10:46:32;18.30;;;12.30;;
76725;SDS011;65651;53.154;17.916;2024-02-16T10:49:00;28.20;;;15.30;;
76725;SDS011;65651;53.154;17.916;2024-02-16T10:51:34;20.00;;;13.10;;
76725;SDS011;65651;53.154;17.916;2024-02-16T10:54:05;26.50;;;14.40;;
76725;SDS011;65651;53.154;17.916;2024-02-16T10:56:34;18.80;;;11.50;;
76725;SDS011;65651;53.154;17.916;2024-02-16T10:59:06;21.70;;;11.70;;
76725;SDS011;65651;53.154;17.916;2024-02-16T11:01:38;22.60;;;13.00;;
76725;SDS011;65651;53.154;17.916;2024-02-16T11:04:07;22.80;;;12.10;;
76725;SDS011;65651;53.154;17.916;2024-02-16T11:09:28;23.00;;;13.10;;
76725;SDS011;65651;53.154;17.916;2024-02-16T11:12:00;20.00;;;10.80;;
76725;SDS011;65651;53.154;17.916;2024-02-16T11:14:37;22.70;;;12.10;;
76725;SDS011;65651;53.154;17.916;2024-02-16T11:17:12;17.10;;;9.50;;
76725;SDS011;65651;53.154;17.916;2024-02-16T11:19:41;21.20;;;11.40;;
76725;SDS011;65651;53.154;17.916;2024-02-16T11:22:10;27.30;;;13.00;;
76725;SDS011;65651;53.154;17.916;2024-02-16T11:24:45;22.50;;;11.00;;
76725;SDS011;65651;53.154;17.916;2024-02-16T11:27:32;16.50;;;10.90;;
76725;SDS011;65651;53.154;17.916;2024-02-16T11:30:00;22.70;;;12.60;;
76725;SDS011;65651;53.154;17.916;2024-02-16T11:32:31;19.80;;;11.60;;
76725;SDS011;65651;53.154;17.916;2024-02-16T11:35:06;14.50;;;9.00;;
76725;SDS011;65651;53.154;17.916;2024-02-16T11:37:35;15.00;;;10.10;;
76725;SDS011;65651;53.154;17.916;2024-02-16T11:40:02;20.20;;;12.00;;
76725;SDS011;65651;53.154;17.916;2024-02-16T11:42:30;13.80;;;9.20;;
76725;SDS011;65651;53.154;17.916;2024-02-16T11:44:57;11.30;;;7.80;;
76725;SDS011;65651;53.154;17.916;2024-02-16T11:47:24;13.50;;;8.20;;
76725;SDS011;65651;53.154;17.916;2024-02-16T11:50:02;15.50;;;10.30;;
76725;SDS011;65651;53.154;17.916;2024-02-16T11:52:35;19.50;;;9.80;;
76725;SDS011;65651;53.154;17.916;2024-02-16T11:55:03;15.50;;;9.00;;
76725;SDS011;65651;53.154;17.916;2024-02-16T11:57:35;14.40;;;8.50;;
76725;SDS011;65651;53.154;17.916;2024-02-16T12:00:03;16.20;;;9.60;;
76725;SDS011;65651;53.154;17.916;2024-02-16T12:02:34;15.30;;;9.60;;
76725;SDS011;65651;53.154;17.916;2024-02-16T12:05:03;14.60;;;10.20;;
76725;SDS011;65651;53.154;17.916;2024-02-16T12:07:33;17.90;;;10.80;;
76725;SDS011;65651;53.154;17.916;2024-02-16T12:10:13;16.00;;;9.00;;
76725;SDS011;65651;53.154;17.916;2024-02-16T12:13:26;11.30;;;7.20;;
76725;SDS011;65651;53.154;17.916;2024-02-16T12:15:53;11.10;;;7.40;;
76725;SDS011;65651;53.154;17.916;2024-02-16T12:18:23;11.60;;;8.60;;
76725;SDS011;65651;53.154;17.916;2024-02-16T12:21:04;12.50;;;7.80;;
76725;SDS011;65651;53.154;17.916;2024-02-16T12:23:32;14.60;;;9.20;;
76725;SDS011;65651;53.154;17.916;2024-02-16T12:26:00;14.50;;;8.20;;
76725;SDS011;65651;53.154;17.916;2024-02-16T12:28:31;15.10;;;8.90;;
76725;SDS011;65651;53.154;17.916;2024-02-16T12:31:02;15.20;;;7.30;;
76725;SDS011;65651;53.154;17.916;2024-02-16T12:33:30;12.00;;;7.70;;
76725;SDS011;65651;53.154;17.916;2024-02-16T12:35:56;12.30;;;7.90;;
76725;SDS011;65651;53.154;17.916;2024-02-16T12:38:23;9.90;;;6.60;;
76725;SDS011;65651;53.154;17.916;2024-02-16T12:40:50;15.20;;;8.80;;
76725;SDS011;65651;53.154;17.916;2024-02-16T12:43:18;12.40;;;7.40;;
76725;SDS011;65651;53.154;17.916;2024-02-16T12:45:46;14.50;;;8.20;;
76725;SDS011;65651;53.154;17.916;2024-02-16T12:48:13;17.30;;;9.80;;
76725;SDS011;65651;53.154;17.916;2024-02-16T12:50:41;13.40;;;9.30;;
76725;SDS011;65651;53.154;17.916;2024-02-16T12:53:09;13.70;;;8.40;;
76725;SDS011;65651;53.154;17.916;2024-02-16T12:55:36;25.70;;;13.00;;
76725;SDS011;65651;53.154;17.916;2024-02-16T12:58:03;16.60;;;9.00;;
76725;SDS011;65651;53.154;17.916;2024-02-16T13:00:30;15.10;;;7.70;;
76725;SDS011;65651;53.154;17.916;2024-02-16T13:02:57;17.00;;;9.50;;
76725;SDS011;65651;53.154;17.916;2024-02-16T13:05:24;11.10;;;7.20;;
76725;SDS011;65651;53.154;17.916;2024-02-16T13:07:51;9.70;;;6.00;;
76725;SDS011;65651;53.154;17.916;2024-02-16T13:10:19;11.80;;;6.30;;
76725;SDS011;65651;53.154;17.916;2024-02-16T13:12:46;10.50;;;7.30;;
76725;SDS011;65651;53.154;17.916;2024-02-16T13:15:13;10.20;;;6.70;;
76725;SDS011;65651;53.154;17.916;2024-02-16T13:17:41;11.80;;;7.30;;
76725;SDS011;65651;53.154;17.916;2024-02-16T13:20:08;10.60;;;7.20;;
76725;SDS011;65651;53.154;17.916;2024-02-16T13:22:38;11.90;;;6.60;;
76725;SDS011;65651;53.154;17.916;2024-02-16T13:25:07;15.20;;;7.90;;
76725;SDS011;65651;53.154;17.916;2024-02-16T13:27:38;10.80;;;7.60;;
76725;SDS011;65651;53.154;17.916;2024-02-16T13:30:08;14.30;;;7.80;;
76725;SDS011;65651;53.154;17.916;2024-02-16T13:32:36;13.00;;;6.50;;
76725;SDS011;65651;53.154;17.916;2024-02-16T13:35:06;12.30;;;7.70;;
76725;SDS011;65651;53.154;17.916;2024-02-16T13:37:34;10.10;;;6.90;;
76725;SDS011;65651;53.154;17.916;2024-02-16T13:40:01;14.60;;;8.80;;
76725;SDS011;65651;53.154;17.916;2024-02-16T13:42:31;13.00;;;9.30;;
76725;SDS011;65651;53.154;17.916;2024-02-16T13:44:58;16.40;;;9.20;;
76725;SDS011;65651;53.154;17.916;2024-02-16T13:47:25;17.20;;;9.30;;
76725;SDS011;65651;53.154;17.916;2024-02-16T13:49:52;14.30;;;9.50;;
76725;SDS011;65651;53.154;17.916;2024-02-16T13:52:19;18.00;;;10.20;;
76725;SDS011;65651;53.154;17.916;2024-02-16T13:54:46;21.80;;;12.10;;
76725;SDS011;65651;53.154;17.916;2024-02-16T13:57:13;18.70;;;11.70;;
76725;SDS011;65651;53.154;17.916;2024-02-16T13:59:41;20.70;;;11.40;;
76725;SDS011;65651;53.154;17.916;2024-02-16T14:02:09;25.70;;;11.70;;
76725;SDS011;65651;53.154;17.916;2024-02-16T14:04:36;23.60;;;10.90;;
76725;SDS011;65651;53.154;17.916;2024-02-16T14:07:03;18.10;;;10.70;;
76725;SDS011;65651;53.154;17.916;2024-02-16T14:09:31;15.20;;;10.40;;
76725;SDS011;65651;53.154;17.916;2024-02-16T14:11:58;22.90;;;12.50;;
76725;SDS011;65651;53.154;17.916;2024-02-16T14:14:25;27.20;;;12.00;;
76725;SDS011;65651;53.154;17.916;2024-02-16T14:16:52;28.00;;;12.30;;
76725;SDS011;65651;53.154;17.916;2024-02-16T14:19:20;23.40;;;10.60;;
76725;SDS011;65651;53.154;17.916;2024-02-16T14:21:47;36.90;;;13.50;;
76725;SDS011;65651;53.154;17.916;2024-02-16T14:24:14;38.50;;;15.10;;